createdAt,value
2018-04-29T00:00:46.675Z,48.10
2018-04-29T00:03:20.907Z,48.10
2018-04-29T00:05:47.553Z,48.00
2018-04-29T00:08:14.494Z,47.90
2018-04-29T00:10:40.697Z,47.90
2018-04-29T00:13:07.290Z,48.00
2018-04-29T00:15:35.246Z,48.00
2018-04-29T00:18:03.030Z,48.00
2018-04-29T00:20:32.006Z,47.90
2018-04-29T00:23:04.737Z,47.90
2018-04-29T00:25:31.933Z,47.90
2018-04-29T00:28:00.829Z,47.80
2018-04-29T00:30:28.128Z,47.90
2018-04-29T00:32:54.362Z,47.80
2018-04-29T00:35:20.587Z,47.90
2018-04-29T00:37:46.787Z,47.90
2018-04-29T00:40:12.987Z,47.90
2018-04-29T00:42:39.187Z,47.80
2018-04-29T00:45:06.457Z,47.80
2018-04-29T00:47:33.754Z,47.80
2018-04-29T00:50:01.442Z,47.80
2018-04-29T00:52:29.076Z,47.70
2018-04-29T00:54:56.792Z,47.80
2018-04-29T00:57:24.883Z,47.70
2018-04-29T00:59:51.085Z,47.70
2018-04-29T01:02:23.713Z,47.50
2018-04-29T01:04:53.389Z,47.70
2018-04-29T01:07:19.556Z,47.70
2018-04-29T01:09:45.738Z,47.70
2018-04-29T01:12:18.674Z,47.70
2018-04-29T01:14:47.159Z,47.70
2018-04-29T01:17:13.360Z,47.60
2018-04-29T01:19:39.995Z,47.70
2018-04-29T01:22:14.824Z,47.60
2018-04-29T01:24:44.338Z,47.60
2018-04-29T01:27:10.531Z,47.60
2018-04-29T01:29:36.752Z,47.60
2018-04-29T01:32:06.384Z,47.60
2018-04-29T01:34:33.348Z,47.60
2018-04-29T01:37:00.266Z,47.60
2018-04-29T01:39:26.448Z,47.60
2018-04-29T01:41:52.680Z,47.60
2018-04-29T01:44:18.878Z,47.60
2018-04-29T01:46:45.041Z,47.60
2018-04-29T01:49:11.255Z,47.70
2018-04-29T01:51:38.008Z,47.60
2018-04-29T01:54:04.200Z,47.60
2018-04-29T01:56:31.147Z,47.60
2018-04-29T01:58:58.092Z,47.60
2018-04-29T02:01:25.004Z,48.90
2018-04-29T02:03:51.962Z,49.00
2018-04-29T02:06:18.884Z,48.60
2018-04-29T02:08:45.116Z,48.50
2018-04-29T02:11:12.100Z,48.80
2018-04-29T02:13:38.303Z,48.70
2018-04-29T02:16:04.488Z,48.70
2018-04-29T02:18:31.430Z,48.40
2018-04-29T02:20:58.359Z,48.50
2018-04-29T02:23:24.556Z,48.40
2018-04-29T02:25:50.755Z,48.30
2018-04-29T02:28:16.927Z,48.00
2018-04-29T02:30:43.093Z,48.10
2018-04-29T02:33:09.277Z,48.00
2018-04-29T02:35:35.497Z,48.10
2018-04-29T02:38:02.411Z,48.00
2018-04-29T02:40:28.593Z,48.00
2018-04-29T02:42:55.531Z,48.10
2018-04-29T02:45:22.467Z,48.00
2018-04-29T02:47:48.671Z,47.90
2018-04-29T02:50:14.875Z,47.90
2018-04-29T02:52:41.057Z,47.90
2018-04-29T02:55:07.216Z,47.90
2018-04-29T02:57:34.137Z,47.90
2018-04-29T03:00:01.083Z,47.90
2018-04-29T03:02:32.421Z,47.90
2018-04-29T03:04:58.998Z,47.90
2018-04-29T03:07:26.534Z,47.90
2018-04-29T03:09:53.598Z,47.90
2018-04-29T03:15:09.238Z,48.00
2018-04-29T03:17:36.389Z,47.90
2018-04-29T03:20:02.586Z,47.90
2018-04-29T03:22:29.916Z,47.90
2018-04-29T03:24:56.836Z,47.80
2018-04-29T03:27:24.344Z,48.20
2018-04-29T03:29:50.544Z,47.80
2018-04-29T03:35:02.951Z,47.70
2018-04-29T03:37:29.924Z,47.90
2018-04-29T03:39:56.122Z,47.80
2018-04-29T03:42:26.317Z,47.80
2018-04-29T03:44:53.280Z,48.00
2018-04-29T03:47:19.478Z,47.80
2018-04-29T03:49:46.368Z,47.80
2018-04-29T03:55:07.862Z,47.70
2018-04-29T03:57:34.032Z,47.60
2018-04-29T04:00:00.236Z,47.80
2018-04-29T04:02:26.508Z,47.80
2018-04-29T04:04:53.258Z,47.70
2018-04-29T04:07:20.946Z,47.70
2018-04-29T04:09:48.188Z,47.70
2018-04-29T04:12:21.849Z,47.70
2018-04-29T04:14:48.545Z,47.80
2018-04-29T04:17:15.236Z,47.50
2018-04-29T04:19:41.729Z,47.70
2018-04-29T04:22:07.912Z,47.70
2018-04-29T04:24:34.142Z,47.80
2018-04-29T04:27:00.364Z,47.70
2018-04-29T04:29:26.607Z,47.70
2018-04-29T04:31:52.831Z,47.80
2018-04-29T04:34:19.088Z,47.70
2018-04-29T04:36:45.287Z,47.80
2018-04-29T04:39:11.548Z,47.70
2018-04-29T04:41:47.975Z,47.70
2018-04-29T04:44:14.208Z,47.70
2018-04-29T04:46:41.149Z,48.00
2018-04-29T04:49:07.387Z,47.70
2018-04-29T04:51:33.605Z,47.70
2018-04-29T04:53:59.787Z,47.70
2018-04-29T04:56:26.014Z,47.70
2018-04-29T04:58:52.255Z,47.70
2018-04-29T05:01:18.464Z,47.80
2018-04-29T05:03:44.678Z,48.80
2018-04-29T05:06:10.950Z,51.70
2018-04-29T05:08:37.147Z,51.60
2018-04-29T05:11:04.199Z,52.60
2018-04-29T05:13:30.425Z,52.00
2018-04-29T05:15:56.639Z,51.80
2018-04-29T05:18:23.607Z,51.00
2018-04-29T05:20:49.800Z,51.00
2018-04-29T05:23:16.739Z,50.70
2018-04-29T05:25:42.945Z,50.70
2018-04-29T05:28:09.921Z,51.00
2018-04-29T05:30:36.111Z,51.00
2018-04-29T05:33:02.345Z,50.60
2018-04-29T05:35:28.665Z,50.40
2018-04-29T05:37:55.579Z,50.10
2018-04-29T05:40:21.775Z,50.00
2018-04-29T05:42:47.979Z,49.90
2018-04-29T05:45:14.174Z,49.70
2018-04-29T05:47:41.108Z,49.40
2018-04-29T05:50:08.055Z,49.00
2018-04-29T05:52:34.989Z,51.20
2018-04-29T05:55:01.239Z,51.40
2018-04-29T05:57:28.191Z,53.60
2018-04-29T05:59:54.382Z,53.50
2018-04-29T06:02:26.264Z,53.30
2018-04-29T06:04:53.460Z,53.20
2018-04-29T06:07:19.685Z,53.10
2018-04-29T06:09:45.870Z,53.20
2018-04-29T06:12:24.591Z,52.60
2018-04-29T06:14:51.745Z,52.10
2018-04-29T06:17:17.940Z,52.00
2018-04-29T06:19:44.877Z,51.30
2018-04-29T06:22:11.097Z,51.30
2018-04-29T06:24:37.328Z,50.80
2018-04-29T06:27:03.557Z,50.50
2018-04-29T06:29:29.797Z,50.30
2018-04-29T06:31:56.088Z,50.00
2018-04-29T06:34:22.305Z,49.60
2018-04-29T06:36:48.522Z,49.30
2018-04-29T06:39:14.746Z,49.40
2018-04-29T06:41:40.978Z,49.30
2018-04-29T06:44:07.190Z,49.10
2018-04-29T06:46:33.385Z,48.80
2018-04-29T06:48:59.585Z,48.80
2018-04-29T06:51:26.541Z,48.70
2018-04-29T06:53:52.753Z,48.60
2018-04-29T06:56:18.957Z,48.60
2018-04-29T06:58:45.897Z,48.40
2018-04-29T07:01:12.094Z,48.30
2018-04-29T07:03:39.016Z,48.30
2018-04-29T07:06:05.967Z,48.20
2018-04-29T07:08:32.947Z,48.60
2018-04-29T07:10:59.136Z,48.20
2018-04-29T07:13:25.350Z,48.20
2018-04-29T07:15:51.582Z,48.10
2018-04-29T07:18:17.804Z,48.00
2018-04-29T07:20:43.980Z,47.90
2018-04-29T07:23:10.183Z,48.20
2018-04-29T07:25:36.369Z,48.10
2018-04-29T07:28:03.313Z,47.80
2018-04-29T07:30:30.269Z,47.80
2018-04-29T07:32:56.475Z,47.80
2018-04-29T07:35:23.416Z,47.30
2018-04-29T07:37:50.356Z,47.20
2018-04-29T07:40:17.804Z,46.90
2018-04-29T07:42:44.192Z,46.90
2018-04-29T07:45:10.394Z,46.90
2018-04-29T07:47:37.344Z,46.80
2018-04-29T07:50:04.286Z,46.80
2018-04-29T07:52:30.626Z,46.80
2018-04-29T07:54:57.491Z,46.60
2018-04-29T07:57:24.448Z,46.80
2018-04-29T07:59:50.629Z,46.60
2018-04-29T08:02:17.591Z,46.90
2018-04-29T08:04:44.225Z,46.80
2018-04-29T08:07:10.434Z,46.80
2018-04-29T08:09:37.387Z,52.30
2018-04-29T08:14:42.502Z,54.20
2018-04-29T08:17:08.707Z,54.60
2018-04-29T08:19:34.887Z,53.60
2018-04-29T08:22:01.341Z,53.40
2018-04-29T08:24:27.613Z,55.60
2018-04-29T08:26:53.837Z,55.10
2018-04-29T08:29:20.095Z,56.90
2018-04-29T08:31:46.303Z,57.80
2018-04-29T08:34:13.243Z,63.70
2018-04-29T08:36:40.176Z,64.00
2018-04-29T08:39:07.105Z,64.70
2018-04-29T08:41:33.367Z,64.70
2018-04-29T08:43:59.605Z,65.30
2018-04-29T08:46:25.865Z,66.30
2018-04-29T08:48:52.070Z,66.10
2018-04-29T08:51:19.097Z,66.20
2018-04-29T08:53:45.440Z,65.50
2018-04-29T08:56:11.666Z,66.20
2018-04-29T08:58:38.655Z,67.60
2018-04-29T09:01:05.607Z,65.00
2018-04-29T09:03:32.526Z,63.10
2018-04-29T09:05:58.758Z,63.10
2018-04-29T09:08:24.986Z,61.40
2018-04-29T09:10:51.211Z,60.00
2018-04-29T09:13:17.442Z,59.90
2018-04-29T09:15:43.647Z,58.60
2018-04-29T09:18:10.148Z,57.80
2018-04-29T09:20:36.497Z,57.60
2018-04-29T09:23:02.755Z,57.20
2018-04-29T09:25:28.949Z,57.20
2018-04-29T09:27:55.892Z,57.60
2018-04-29T09:30:22.065Z,57.60
2018-04-29T09:32:48.281Z,57.80
2018-04-29T09:35:14.502Z,57.90
2018-04-29T09:37:41.480Z,57.30
2018-04-29T09:40:13.093Z,57.20
2018-04-29T09:42:39.298Z,56.60
2018-04-29T09:45:07.438Z,56.60
2018-04-29T09:47:33.654Z,56.60
2018-04-29T09:50:06.143Z,57.10
2018-04-29T09:52:32.360Z,57.70
2018-04-29T09:54:58.599Z,57.80
2018-04-29T09:57:25.612Z,57.60
2018-04-29T09:59:51.862Z,57.60
2018-04-29T10:02:23.237Z,56.80
2018-04-29T10:04:49.534Z,56.10
2018-04-29T10:07:15.763Z,55.60
2018-04-29T10:09:41.985Z,55.40
2018-04-29T10:12:08.206Z,56.00
2018-04-29T10:14:35.195Z,57.10
2018-04-29T10:17:01.411Z,57.00
2018-04-29T10:19:27.681Z,57.40
2018-04-29T10:21:53.911Z,57.60
2018-04-29T10:24:20.225Z,57.10
2018-04-29T10:26:46.478Z,56.20
2018-04-29T10:29:12.735Z,55.70
2018-04-29T10:31:39.648Z,55.20
2018-04-29T10:34:05.874Z,55.30
2018-04-29T10:36:32.134Z,55.80
2018-04-29T10:38:58.346Z,56.50
2018-04-29T10:41:24.583Z,57.10
2018-04-29T10:43:50.810Z,56.90
2018-04-29T10:46:17.024Z,57.30
2018-04-29T10:48:43.257Z,57.00
2018-04-29T10:51:10.202Z,55.70
2018-04-29T10:53:36.436Z,55.70
2018-04-29T10:56:03.403Z,55.20
2018-04-29T10:58:29.622Z,55.20
2018-04-29T11:00:56.602Z,56.00
2018-04-29T11:03:22.871Z,56.00
2018-04-29T11:05:49.104Z,56.60
2018-04-29T11:08:16.064Z,57.50
2018-04-29T11:10:43.008Z,57.60
2018-04-29T11:13:09.240Z,57.60
2018-04-29T11:15:35.472Z,56.90
2018-04-29T11:18:01.789Z,56.00
2018-04-29T11:20:27.999Z,55.30
2018-04-29T11:22:54.176Z,54.80
2018-04-29T11:25:22.008Z,54.40
2018-04-29T11:27:48.242Z,53.80
2018-04-29T11:30:15.188Z,54.70
2018-04-29T11:32:41.383Z,54.30
2018-04-29T11:35:11.706Z,54.90
2018-04-29T11:37:38.093Z,55.30
2018-04-29T11:40:04.287Z,55.20
2018-04-29T11:42:30.511Z,54.60
2018-04-29T11:44:57.425Z,53.70
2018-04-29T11:47:24.375Z,53.40
2018-04-29T11:49:51.355Z,53.20
2018-04-29T11:52:19.040Z,53.10
2018-04-29T11:54:45.263Z,53.10
2018-04-29T11:57:11.481Z,52.90
2018-04-29T11:59:37.684Z,52.70
2018-04-29T12:02:08.779Z,52.60
2018-04-29T12:04:36.259Z,52.50
2018-04-29T12:07:02.468Z,52.50
2018-04-29T12:09:29.389Z,52.30
2018-04-29T12:14:49.598Z,52.30
2018-04-29T12:17:15.802Z,52.20
2018-04-29T12:19:42.007Z,52.20
2018-04-29T12:22:09.040Z,53.80
2018-04-29T12:24:35.531Z,54.20
2018-04-29T12:27:02.475Z,54.20
2018-04-29T12:29:29.408Z,53.90
2018-04-29T12:31:55.976Z,53.90
2018-04-29T12:34:22.218Z,53.70
2018-04-29T12:36:48.421Z,53.40
2018-04-29T12:39:14.642Z,53.80
2018-04-29T12:41:40.855Z,53.00
2018-04-29T12:44:07.784Z,52.90
2018-04-29T12:46:33.993Z,52.90
2018-04-29T12:49:00.153Z,52.70
2018-04-29T12:51:26.348Z,52.70
2018-04-29T12:53:52.604Z,52.60
2018-04-29T12:56:18.786Z,52.60
2018-04-29T12:58:45.016Z,52.30
2018-04-29T13:01:11.982Z,52.20
2018-04-29T13:03:38.925Z,52.20
2018-04-29T13:06:05.882Z,52.60
2018-04-29T13:08:32.811Z,52.60
2018-04-29T13:10:59.019Z,52.60
2018-04-29T13:13:25.977Z,52.40
2018-04-29T13:15:52.912Z,52.40
2018-04-29T13:18:19.896Z,52.40
2018-04-29T13:20:46.090Z,52.30
2018-04-29T13:23:12.321Z,52.30
2018-04-29T13:25:38.548Z,52.30
2018-04-29T13:28:04.768Z,52.20
2018-04-29T13:30:30.969Z,52.20
2018-04-29T13:32:57.165Z,52.10
2018-04-29T13:35:23.380Z,52.10
2018-04-29T13:37:49.645Z,52.00
2018-04-29T13:40:15.859Z,52.00
2018-04-29T13:42:43.861Z,51.90
2018-04-29T13:45:11.697Z,51.80
2018-04-29T13:47:38.631Z,51.90
2018-04-29T13:50:05.577Z,51.60
2018-04-29T13:52:31.783Z,51.60
2018-04-29T13:54:58.717Z,51.90
2018-04-29T13:57:27.893Z,52.00
2018-04-29T14:00:05.440Z,52.00
2018-04-29T14:02:31.755Z,52.00
2018-04-29T14:04:57.937Z,52.00
2018-04-29T14:07:24.165Z,52.00
2018-04-29T14:09:50.365Z,51.90
2018-04-29T14:12:16.613Z,51.80
2018-04-29T14:14:42.826Z,51.70
2018-04-29T14:17:09.024Z,51.70
2018-04-29T14:19:35.257Z,51.60
2018-04-29T14:22:01.503Z,51.60
2018-04-29T14:24:27.726Z,51.40
2018-04-29T14:26:53.996Z,51.60
2018-04-29T14:29:21.695Z,51.50
2018-04-29T14:31:47.972Z,51.40
2018-04-29T14:34:14.325Z,51.50
2018-04-29T14:36:40.592Z,51.40
2018-04-29T14:39:06.764Z,51.30
2018-04-29T14:41:32.930Z,51.10
2018-04-29T14:43:59.127Z,51.00
2018-04-29T14:46:25.358Z,51.00
2018-04-29T14:48:51.529Z,50.80
2018-04-29T14:51:17.724Z,50.60
2018-04-29T14:53:47.649Z,50.70
2018-04-29T14:56:13.846Z,50.60
2018-04-29T14:58:40.775Z,50.30
2018-04-29T15:01:06.988Z,50.30
2018-04-29T15:03:33.963Z,50.10
2018-04-29T15:06:00.916Z,50.10
2018-04-29T15:08:27.142Z,49.90
2018-04-29T15:10:53.349Z,50.10
2018-04-29T15:13:19.555Z,50.10
2018-04-29T15:15:45.770Z,50.10
2018-04-29T15:18:11.956Z,50.80
2018-04-29T15:20:38.148Z,50.10
2018-04-29T15:23:04.418Z,50.10
2018-04-29T15:25:30.654Z,50.00
2018-04-29T15:27:56.888Z,50.00
2018-04-29T15:30:23.130Z,50.00
2018-04-29T15:32:49.332Z,50.00
2018-04-29T15:35:15.546Z,49.90
2018-04-29T15:37:42.568Z,50.10
2018-04-29T15:40:08.818Z,50.00
2018-04-29T15:42:35.776Z,50.00
2018-04-29T15:45:01.978Z,50.00
2018-04-29T15:47:28.190Z,49.80
2018-04-29T15:50:05.278Z,50.00
2018-04-29T15:52:31.458Z,50.00
2018-04-29T15:54:57.648Z,49.90
2018-04-29T15:57:23.944Z,49.90
2018-04-29T15:59:50.162Z,49.80
2018-04-29T16:02:16.396Z,49.80
2018-04-29T16:04:43.320Z,49.70
2018-04-29T16:07:09.523Z,49.60
2018-04-29T16:09:35.736Z,49.50
2018-04-29T16:12:02.510Z,49.80
2018-04-29T16:14:28.743Z,49.60
2018-04-29T16:16:55.011Z,49.70
2018-04-29T16:19:21.940Z,49.60
2018-04-29T16:21:48.334Z,49.60
2018-04-29T16:24:14.681Z,49.70
2018-04-29T16:26:41.652Z,49.60
2018-04-29T16:29:07.892Z,49.50
2018-04-29T16:31:35.362Z,49.50
2018-04-29T16:34:02.382Z,49.40
2018-04-29T16:36:30.868Z,49.40
2018-04-29T16:38:57.597Z,49.40
2018-04-29T16:41:23.811Z,49.40
2018-04-29T16:43:50.002Z,49.30
2018-04-29T16:46:16.186Z,49.30
2018-04-29T16:48:42.402Z,49.40
2018-04-29T16:51:08.601Z,49.40
2018-04-29T16:53:34.878Z,49.60
2018-04-29T16:56:01.848Z,49.40
2018-04-29T16:58:29.046Z,49.30
2018-04-29T17:00:56.173Z,49.30
2018-04-29T17:03:22.346Z,49.30
2018-04-29T17:05:49.304Z,49.30
2018-04-29T17:08:16.217Z,49.20
2018-04-29T17:10:42.438Z,49.20
2018-04-29T17:13:09.384Z,49.30
2018-04-29T17:15:36.350Z,49.30
2018-04-29T17:18:03.273Z,49.40
2018-04-29T17:20:29.468Z,49.40
2018-04-29T17:22:55.679Z,49.30
2018-04-29T17:25:21.867Z,49.30
2018-04-29T17:27:48.040Z,49.30
2018-04-29T17:30:14.237Z,49.30
2018-04-29T17:32:40.855Z,49.30
2018-04-29T17:35:07.241Z,49.20
2018-04-29T17:37:37.518Z,49.20
2018-04-29T17:40:04.486Z,49.20
2018-04-29T17:42:30.684Z,49.20
2018-04-29T17:44:56.924Z,49.20
2018-04-29T17:47:27.087Z,49.20
2018-04-29T17:49:55.847Z,49.10
2018-04-29T17:52:29.533Z,49.10
2018-04-29T17:54:56.463Z,49.20
2018-04-29T17:57:22.670Z,49.20
2018-04-29T17:59:51.682Z,49.20
2018-04-29T18:02:20.801Z,49.30
2018-04-29T18:04:47.026Z,49.20
2018-04-29T18:07:13.313Z,49.10
2018-04-29T18:09:39.444Z,49.10
2018-04-29T18:12:08.402Z,49.10
2018-04-29T18:14:35.773Z,49.20
2018-04-29T18:17:02.004Z,49.20
2018-04-29T18:19:28.231Z,49.10
2018-04-29T18:21:54.468Z,49.10
2018-04-29T18:24:20.760Z,49.10
2018-04-29T18:26:47.756Z,49.00
2018-04-29T18:29:14.744Z,52.90
2018-04-29T18:31:41.105Z,52.80
2018-04-29T18:34:07.331Z,51.00
2018-04-29T18:36:33.544Z,50.70
2018-04-29T18:38:59.832Z,51.40
2018-04-29T18:41:26.028Z,50.90
2018-04-29T18:43:52.990Z,51.30
2018-04-29T18:46:19.935Z,51.30
2018-04-29T18:48:46.909Z,51.30
2018-04-29T18:51:13.295Z,51.30
2018-04-29T18:53:40.193Z,51.10
2018-04-29T18:56:06.402Z,51.00
2018-04-29T18:58:32.624Z,50.80
2018-04-29T19:00:58.825Z,50.50
2018-04-29T19:03:25.068Z,50.20
2018-04-29T19:05:51.266Z,50.20
2018-04-29T19:08:17.480Z,51.10
2018-04-29T19:10:43.676Z,51.40
2018-04-29T19:13:10.618Z,51.20
2018-04-29T19:15:37.552Z,51.90
2018-04-29T19:18:04.537Z,51.40
2018-04-29T19:20:30.806Z,51.40
2018-04-29T19:22:57.013Z,52.00
2018-04-29T19:25:23.259Z,51.70
2018-04-29T19:27:49.461Z,51.70
2018-04-29T19:30:15.690Z,51.60
2018-04-29T19:32:42.644Z,51.70
2018-04-29T19:35:08.926Z,51.70
2018-04-29T19:37:35.954Z,50.90
2018-04-29T19:40:02.969Z,51.30
2018-04-29T19:42:29.562Z,51.20
2018-04-29T19:44:56.180Z,51.20
2018-04-29T19:47:23.347Z,50.60
2018-04-29T19:49:49.838Z,50.90
2018-04-29T19:52:16.193Z,50.60
2018-04-29T20:11:24.845Z,49.80
2018-04-29T20:13:51.252Z,49.90
2018-04-29T20:16:18.588Z,49.80
2018-04-29T20:18:44.896Z,49.80
2018-04-29T20:21:11.306Z,50.10
2018-04-29T20:23:37.654Z,50.10
2018-04-29T20:26:04.173Z,50.10
2018-04-29T20:28:30.508Z,49.90
2018-04-29T20:30:56.876Z,50.60
2018-04-29T20:33:23.247Z,50.90
2018-04-29T20:35:49.673Z,52.00
2018-04-29T20:38:16.825Z,52.80
2018-04-29T20:40:43.560Z,53.20
2018-04-29T20:43:10.207Z,53.30
2018-04-29T20:45:36.546Z,53.90
2018-04-29T20:48:03.707Z,53.60
2018-04-29T20:50:30.113Z,53.80
2018-04-29T20:52:57.229Z,53.70
2018-04-29T20:55:23.629Z,53.90
2018-04-29T20:57:50.233Z,54.20
2018-04-29T21:00:16.773Z,54.50
2018-04-29T21:02:43.916Z,54.30
2018-04-29T21:05:10.289Z,54.50
2018-04-29T21:07:38.451Z,54.60
2018-04-29T21:10:05.171Z,54.50
2018-04-29T21:12:31.656Z,54.30
2018-04-29T21:14:59.316Z,54.10
2018-04-29T21:17:26.791Z,54.30
2018-04-29T21:19:53.367Z,54.60
2018-04-29T21:22:19.991Z,54.30
2018-04-29T21:24:46.580Z,54.60
2018-04-29T21:27:16.325Z,55.10
2018-04-29T21:29:42.771Z,55.50
2018-04-29T21:32:09.376Z,56.60
2018-04-29T21:34:37.222Z,56.90
2018-04-29T21:37:03.887Z,56.50
2018-04-29T21:39:30.589Z,56.00
2018-04-29T21:41:57.450Z,55.40
2018-04-29T21:44:24.805Z,54.60
2018-04-29T21:46:52.677Z,54.90
2018-04-29T21:51:54.311Z,55.70
2018-04-29T21:54:21.127Z,55.70
2018-04-29T21:56:47.810Z,56.30
2018-04-29T21:59:14.527Z,57.00
2018-04-29T22:01:41.699Z,56.90
2018-04-29T22:04:08.603Z,55.40
2018-04-29T22:06:35.207Z,55.00
2018-04-29T22:09:01.574Z,54.80
2018-04-29T22:11:28.981Z,54.70
2018-04-29T22:13:56.689Z,56.60
2018-04-29T22:16:24.339Z,56.90
2018-04-29T22:18:50.981Z,58.30
2018-04-29T22:21:18.687Z,61.50
2018-04-29T22:23:45.945Z,61.50
2018-04-29T22:26:13.174Z,62.40
2018-04-29T22:28:41.010Z,62.60
2018-04-29T22:47:50.300Z,69.10
2018-04-29T22:50:16.794Z,68.90
2018-04-29T22:52:43.160Z,68.60
2018-04-29T22:55:09.623Z,68.00
2018-04-29T22:57:36.082Z,67.60
2018-04-29T23:00:02.586Z,67.10
2018-04-29T23:02:29.108Z,67.10
2018-04-29T23:04:55.564Z,67.70
2018-04-29T23:07:22.789Z,68.00
2018-04-29T23:09:50.138Z,67.20
2018-04-29T23:12:16.586Z,67.30
2018-04-29T23:14:42.978Z,67.10
2018-04-29T23:17:09.368Z,67.20
2018-04-29T23:19:35.707Z,66.90
2018-04-29T23:22:02.164Z,66.90
2018-04-29T23:24:28.582Z,66.70
2018-04-29T23:26:55.006Z,66.60
2018-04-29T23:29:21.592Z,66.60
2018-04-29T23:31:48.284Z,66.10
2018-04-29T23:34:15.298Z,66.20
2018-04-29T23:36:41.794Z,66.00
2018-04-29T23:39:08.966Z,65.80
2018-04-29T23:41:35.460Z,66.20
2018-04-29T23:44:01.925Z,66.00
2018-04-29T23:46:29.070Z,65.90
2018-04-29T23:48:55.788Z,65.80
2018-04-29T23:51:22.189Z,65.90
2018-04-29T23:53:48.610Z,65.60
2018-04-29T23:56:15.066Z,65.40
2018-04-29T23:58:41.541Z,65.40
